createdAt,value
2023-02-13T00:01:27.621Z,99500.00
2023-02-13T00:03:55.938Z,99500.00
2023-02-13T00:06:24.470Z,99495.00
2023-02-13T00:08:54.235Z,99494.00
2023-02-13T00:11:22.443Z,99492.00
2023-02-13T00:13:50.626Z,99496.00
2023-02-13T00:16:18.943Z,99487.00
2023-02-13T00:18:47.136Z,99491.00
2023-02-13T00:21:15.794Z,99494.00
2023-02-13T00:23:43.977Z,99504.00
2023-02-13T00:26:16.930Z,99497.00
2023-02-13T00:28:47.033Z,99493.00
2023-02-13T00:31:18.577Z,99494.00
2023-02-13T00:33:47.436Z,99512.00
2023-02-13T00:36:18.878Z,99494.00
2023-02-13T00:38:47.906Z,99495.00
2023-02-13T00:41:18.587Z,99490.00
2023-02-13T00:43:48.135Z,99499.00
2023-02-13T00:46:16.797Z,99496.00
2023-02-13T00:48:45.916Z,99499.00
2023-02-13T00:51:14.502Z,99501.00
2023-02-13T00:53:42.652Z,99508.00
2023-02-13T00:56:11.111Z,99503.00
2023-02-13T00:58:43.849Z,99495.00
2023-02-13T01:01:12.520Z,99502.00
2023-02-13T01:03:40.862Z,99492.00
2023-02-13T01:06:09.581Z,99510.00
2023-02-13T01:08:41.546Z,99488.00
2023-02-13T01:11:10.653Z,99486.00
2023-02-13T01:13:40.501Z,99496.00
2023-02-13T01:16:08.909Z,99498.00
2023-02-13T01:18:37.213Z,99491.00
2023-02-13T01:21:09.123Z,99499.00
2023-02-13T01:23:39.835Z,99495.00
2023-02-13T01:26:11.960Z,99494.00
2023-02-13T01:28:41.734Z,99487.00
2023-02-13T01:31:10.261Z,99490.00
2023-02-13T01:33:38.472Z,99488.00
2023-02-13T01:36:14.104Z,99485.00
2023-02-13T01:38:43.038Z,99480.00
2023-02-13T01:41:11.800Z,99473.00
2023-02-13T01:43:52.588Z,99474.00
2023-02-13T01:46:29.989Z,99471.00
2023-02-13T01:49:06.367Z,99471.00
2023-02-13T01:51:37.208Z,99481.00
2023-02-13T01:54:12.949Z,99468.00
2023-02-13T01:56:47.644Z,99482.00
2023-02-13T01:59:24.000Z,99480.00
2023-02-13T02:01:54.033Z,99477.00
2023-02-13T02:04:28.790Z,99481.00
2023-02-13T02:07:02.414Z,99476.00
2023-02-13T02:09:40.656Z,99485.00
2023-02-13T02:12:19.100Z,99478.00
2023-02-13T02:14:50.725Z,99477.00
2023-02-13T02:17:21.061Z,99470.00
2023-02-13T02:20:05.071Z,99491.00
2023-02-13T02:23:16.066Z,99483.00
2023-02-13T02:26:58.542Z,99472.00
2023-02-13T02:30:06.337Z,99479.00
2023-02-13T02:33:13.130Z,99472.00
2023-02-13T02:35:57.854Z,99470.00
2023-02-13T02:38:49.655Z,99479.00
2023-02-13T02:41:45.351Z,99469.00
2023-02-13T02:44:33.892Z,99470.00
2023-02-13T02:47:51.578Z,99485.00
2023-02-13T02:50:39.181Z,99465.00
2023-02-13T02:53:27.668Z,99478.00
2023-02-13T02:56:08.156Z,99465.00
2023-02-13T02:59:01.831Z,99465.00
2023-02-13T03:01:52.318Z,99472.00
2023-02-13T03:04:44.810Z,99467.00
2023-02-13T03:07:18.545Z,99472.00
2023-02-13T03:10:10.279Z,99466.00
2023-02-13T03:13:04.172Z,99468.00
2023-02-13T03:15:35.320Z,99468.00
2023-02-13T03:18:21.182Z,99483.00
2023-02-13T03:21:19.995Z,99465.00
2023-02-13T03:24:01.354Z,99468.00
2023-02-13T03:26:50.285Z,99463.00
2023-02-13T03:30:01.038Z,99473.00
2023-02-13T03:32:42.263Z,99479.00
2023-02-13T03:35:54.308Z,99491.00
2023-02-13T03:38:30.995Z,99478.00
2023-02-13T03:41:21.656Z,99476.00
2023-02-13T03:44:04.525Z,99477.00
2023-02-13T03:46:40.014Z,99479.00
2023-02-13T03:49:31.763Z,99481.00
2023-02-13T03:52:06.103Z,99494.00
2023-02-13T03:55:01.340Z,99487.00
2023-02-13T03:57:52.024Z,99473.00
2023-02-13T04:00:22.945Z,99473.00
2023-02-13T04:03:03.093Z,99483.00
2023-02-13T04:05:37.138Z,99483.00
2023-02-13T04:08:05.452Z,99481.00
2023-02-13T04:10:43.359Z,99494.00
2023-02-13T04:13:21.388Z,99498.00
2023-02-13T04:15:57.124Z,99497.00
2023-02-13T04:18:29.929Z,99495.00
2023-02-13T04:20:58.353Z,99495.00
2023-02-13T04:23:26.729Z,99495.00
2023-02-13T04:25:58.730Z,99477.00
2023-02-13T04:28:28.250Z,99482.00
2023-02-13T04:30:57.708Z,99471.00
2023-02-13T04:33:26.121Z,99493.00
2023-02-13T04:35:54.233Z,99477.00
2023-02-13T04:38:22.417Z,99497.00
2023-02-13T04:40:50.575Z,99485.00
2023-02-13T04:43:18.752Z,99482.00
2023-02-13T04:45:51.213Z,99488.00
2023-02-13T04:48:19.539Z,99477.00
2023-02-13T04:50:48.006Z,99480.00
2023-02-13T04:53:16.176Z,99490.00
2023-02-13T04:55:44.829Z,99494.00
2023-02-13T04:58:12.997Z,99489.00
2023-02-13T05:00:41.427Z,99480.00
2023-02-13T05:03:14.074Z,99480.00
2023-02-13T05:05:42.529Z,99474.00
2023-02-13T05:08:10.841Z,99479.00
2023-02-13T05:10:39.195Z,99488.00
2023-02-13T05:13:07.603Z,99475.00
2023-02-13T05:15:36.146Z,99486.00
2023-02-13T05:18:04.572Z,99502.00
2023-02-13T05:20:34.071Z,99510.00
2023-02-13T05:23:19.768Z,99495.00
2023-02-13T05:25:47.988Z,99498.00
2023-02-13T05:28:34.269Z,99506.00
2023-02-13T05:31:03.104Z,99511.00
2023-02-13T05:33:31.523Z,99500.00
2023-02-13T05:36:01.057Z,99509.00
2023-02-13T05:38:29.189Z,99510.00
2023-02-13T05:40:59.890Z,99515.00
2023-02-13T05:43:28.221Z,99506.00
2023-02-13T05:46:04.349Z,99516.00
2023-02-13T05:48:32.911Z,99513.00
2023-02-13T05:51:02.964Z,99501.00
2023-02-13T05:53:31.241Z,99513.00
2023-02-13T05:55:59.462Z,99513.00
2023-02-13T05:58:27.739Z,99518.00
2023-02-13T06:00:59.675Z,99521.00
2023-02-13T06:03:30.506Z,99526.00
2023-02-13T06:05:59.589Z,99517.00
2023-02-13T06:08:29.435Z,99525.00
2023-02-13T06:10:57.814Z,99515.00
2023-02-13T06:13:26.146Z,99536.00
2023-02-13T06:15:54.909Z,99539.00
2023-02-13T06:18:23.299Z,99540.00
2023-02-13T06:20:51.508Z,99537.00
2023-02-13T06:23:20.422Z,99546.00
2023-02-13T06:25:49.974Z,99540.00
2023-02-13T06:28:18.262Z,99549.00
2023-02-13T06:30:46.608Z,99544.00
2023-02-13T06:33:14.895Z,99540.00
2023-02-13T06:35:43.516Z,99547.00
2023-02-13T06:38:11.683Z,99543.00
2023-02-13T06:40:39.920Z,99545.00
2023-02-13T06:43:09.525Z,99553.00
2023-02-13T06:45:39.043Z,99557.00
2023-02-13T06:48:07.477Z,99532.00
2023-02-13T06:50:35.975Z,99564.00
2023-02-13T06:53:04.274Z,99564.00
2023-02-13T06:55:32.460Z,99578.00
2023-02-13T06:58:00.682Z,99585.00
2023-02-13T07:00:30.238Z,99585.00
2023-02-13T07:03:04.445Z,99567.00
2023-02-13T07:05:33.064Z,99565.00
2023-02-13T07:08:01.261Z,99580.00
2023-02-13T07:10:29.471Z,99571.00
2023-02-13T07:13:05.691Z,99566.00
2023-02-13T07:15:38.950Z,99567.00
2023-02-13T07:18:08.013Z,99580.00
2023-02-13T07:20:36.743Z,99578.00
2023-02-13T07:23:06.976Z,99572.00
2023-02-13T07:25:36.091Z,99556.00
2023-02-13T07:28:05.661Z,99582.00
2023-02-13T07:30:36.216Z,99577.00
2023-02-13T07:33:06.378Z,99590.00
2023-02-13T07:35:36.145Z,99575.00
2023-02-13T07:38:06.516Z,99578.00
2023-02-13T07:40:34.643Z,99565.00
2023-02-13T07:43:03.118Z,99578.00
2023-02-13T07:45:31.546Z,99569.00
2023-02-13T07:48:03.018Z,99574.00
2023-02-13T07:50:31.511Z,99585.00
2023-02-13T07:53:02.143Z,99578.00
2023-02-13T07:55:32.664Z,99595.00
2023-02-13T07:58:02.647Z,99599.00
2023-02-13T08:00:30.954Z,99582.00
2023-02-13T08:03:02.753Z,99581.00
2023-02-13T08:05:34.080Z,99596.00
2023-02-13T08:08:02.244Z,99591.00
2023-02-13T08:10:47.941Z,99585.00
2023-02-13T08:13:17.584Z,99595.00
2023-02-13T08:15:45.751Z,99587.00
2023-02-13T08:18:15.257Z,99589.00
2023-02-13T08:20:43.484Z,99576.00
2023-02-13T08:23:12.968Z,99598.00
2023-02-13T08:25:41.627Z,99600.00
2023-02-13T08:28:10.254Z,99594.00
2023-02-13T08:30:38.583Z,99600.00
2023-02-13T08:33:06.831Z,99588.00
2023-02-13T08:35:36.628Z,99583.00
2023-02-13T08:38:05.874Z,99582.00
2023-02-13T08:40:34.625Z,99589.00
2023-02-13T08:43:04.180Z,99573.00
2023-02-13T08:45:33.753Z,99572.00
2023-02-13T08:48:03.982Z,99588.00
2023-02-13T08:50:32.842Z,99577.00
2023-02-13T08:53:02.408Z,99581.00
2023-02-13T08:55:32.104Z,99587.00
2023-02-13T08:58:02.628Z,99585.00
2023-02-13T09:00:31.842Z,99592.00
2023-02-13T09:03:03.454Z,99578.00
2023-02-13T09:05:32.874Z,99571.00
2023-02-13T09:08:03.974Z,99586.00
2023-02-13T09:10:33.399Z,99589.00
2023-02-13T09:13:02.646Z,99579.00
2023-02-13T09:15:31.164Z,99583.00
2023-02-13T09:17:59.719Z,99582.00
2023-02-13T09:20:28.044Z,99575.00
2023-02-13T09:22:57.762Z,99582.00
2023-02-13T09:25:27.337Z,99594.00
2023-02-13T09:27:55.593Z,99573.00
2023-02-13T09:30:24.461Z,99576.00
2023-02-13T09:32:53.087Z,99583.00
2023-02-13T09:35:23.008Z,99556.00
2023-02-13T09:37:51.235Z,99570.00
2023-02-13T09:40:29.410Z,99575.00
2023-02-13T09:43:13.026Z,99574.00
2023-02-13T09:45:43.298Z,99566.00
2023-02-13T09:48:24.155Z,99574.00
2023-02-13T09:50:52.542Z,99569.00
2023-02-13T09:53:25.982Z,99580.00
2023-02-13T09:56:11.052Z,99583.00
2023-02-13T09:58:48.644Z,99580.00
2023-02-13T10:01:30.408Z,99555.00
2023-02-13T10:04:30.627Z,99564.00
2023-02-13T10:07:15.635Z,99584.00
2023-02-13T10:09:59.563Z,99567.00
2023-02-13T10:12:56.345Z,99576.00
2023-02-13T10:15:36.340Z,99577.00
2023-02-13T10:18:11.827Z,99575.00
2023-02-13T10:20:48.212Z,99553.00
2023-02-13T10:23:27.961Z,99573.00
2023-02-13T10:26:03.375Z,99563.00
2023-02-13T10:28:39.797Z,99579.00
2023-02-13T10:31:14.270Z,99560.00
2023-02-13T10:33:51.761Z,99548.00
2023-02-13T10:36:36.505Z,99555.00
2023-02-13T10:39:27.443Z,99554.00
2023-02-13T10:42:03.798Z,99557.00
2023-02-13T10:44:49.629Z,99557.00
2023-02-13T10:47:37.625Z,99551.00
2023-02-13T10:50:21.442Z,99546.00
2023-02-13T10:53:05.969Z,99549.00
2023-02-13T10:56:02.796Z,99546.00
2023-02-13T10:58:50.981Z,99552.00
2023-02-13T11:01:31.114Z,99546.00
2023-02-13T11:04:08.344Z,99545.00
2023-02-13T11:06:42.528Z,99552.00
2023-02-13T11:09:13.392Z,99532.00
2023-02-13T11:11:43.948Z,99537.00
2023-02-13T11:14:16.745Z,99549.00
2023-02-13T11:16:56.797Z,99533.00
2023-02-13T11:19:32.929Z,99541.00
2023-02-13T11:22:07.120Z,99536.00
2023-02-13T11:24:37.389Z,99524.00
2023-02-13T11:27:12.824Z,99525.00
2023-02-13T11:29:58.145Z,99526.00
2023-02-13T11:32:29.783Z,99524.00
2023-02-13T11:34:58.976Z,99533.00
2023-02-13T11:37:30.086Z,99520.00
2023-02-13T11:40:01.401Z,99522.00
2023-02-13T11:42:33.940Z,99523.00
2023-02-13T11:45:06.215Z,99536.00
2023-02-13T11:47:40.853Z,99533.00
2023-02-13T11:50:25.414Z,99528.00
2023-02-13T11:52:58.788Z,99534.00
2023-02-13T11:55:32.231Z,99528.00
2023-02-13T11:58:03.572Z,99520.00
2023-02-13T12:00:39.832Z,99533.00
2023-02-13T12:03:31.103Z,99518.00
2023-02-13T12:06:07.148Z,99512.00
2023-02-13T12:08:38.406Z,99500.00
2023-02-13T12:11:24.678Z,99509.00
2023-02-13T12:13:53.951Z,99519.00
2023-02-13T12:16:33.957Z,99503.00
2023-02-13T12:19:08.577Z,99496.00
2023-02-13T12:21:59.442Z,99498.00
2023-02-13T12:24:54.429Z,99486.00
2023-02-13T12:27:37.147Z,99497.00
2023-02-13T12:30:34.607Z,99485.00
2023-02-13T12:33:24.741Z,99468.00
2023-02-13T12:36:03.202Z,99482.00
2023-02-13T12:38:54.412Z,99477.00
2023-02-13T12:41:29.680Z,99477.00
2023-02-13T12:44:36.940Z,99470.00
2023-02-13T12:47:17.982Z,99475.00
2023-02-13T12:50:28.652Z,99473.00
2023-02-13T12:53:24.817Z,99469.00
2023-02-13T12:56:17.324Z,99453.00
2023-02-13T12:59:08.687Z,99454.00
2023-02-13T13:02:26.766Z,99456.00
2023-02-13T13:05:15.733Z,99455.00
2023-02-13T13:08:24.513Z,99452.00
2023-02-13T13:11:06.908Z,99455.00
2023-02-13T13:13:54.471Z,99455.00
2023-02-13T13:16:35.522Z,99455.00
2023-02-13T13:19:17.574Z,99447.00
2023-02-13T13:21:57.312Z,99448.00
2023-02-13T13:24:43.369Z,99455.00
2023-02-13T13:27:21.730Z,99453.00
2023-02-13T13:29:56.973Z,99465.00
2023-02-13T13:32:27.498Z,99462.00
2023-02-13T13:34:58.190Z,99442.00
2023-02-13T13:37:36.217Z,99451.00
2023-02-13T13:40:30.055Z,99445.00
2023-02-13T13:43:06.364Z,99448.00
2023-02-13T13:45:46.397Z,99452.00
2023-02-13T13:48:56.989Z,99459.00
2023-02-13T13:51:26.044Z,99452.00
2023-02-13T13:54:34.674Z,99445.00
2023-02-13T13:57:12.881Z,99454.00
2023-02-13T14:00:27.537Z,99454.00
2023-02-13T14:03:34.130Z,99443.00
2023-02-13T14:06:07.771Z,99443.00
2023-02-13T14:09:09.643Z,99446.00
2023-02-13T14:11:41.845Z,99448.00
2023-02-13T14:14:53.850Z,99436.00
2023-02-13T14:17:54.525Z,99449.00
2023-02-13T14:20:35.419Z,99436.00
2023-02-13T14:23:49.710Z,99442.00
2023-02-13T14:26:32.004Z,99435.00
2023-02-13T14:29:23.425Z,99429.00
2023-02-13T14:32:08.396Z,99450.00
2023-02-13T14:34:40.534Z,99449.00
2023-02-13T14:37:29.722Z,99435.00
2023-02-13T14:40:45.282Z,99451.00
2023-02-13T14:43:38.023Z,99441.00
2023-02-13T14:46:23.633Z,99444.00
2023-02-13T14:49:01.110Z,99441.00
2023-02-13T14:51:37.404Z,99439.00
2023-02-13T14:54:16.521Z,99445.00
2023-02-13T14:56:48.331Z,99444.00
2023-02-13T14:59:19.935Z,99436.00
2023-02-13T15:01:54.607Z,99451.00
2023-02-13T15:04:33.056Z,99441.00
2023-02-13T15:07:04.801Z,99430.00
2023-02-13T15:09:38.898Z,99444.00
2023-02-13T15:12:30.497Z,99435.00
2023-02-13T15:15:01.260Z,99439.00
2023-02-13T15:17:38.318Z,99429.00
2023-02-13T15:20:26.361Z,99435.00
2023-02-13T15:22:55.734Z,99437.00
2023-02-13T15:25:34.871Z,99424.00
2023-02-13T15:28:06.747Z,99440.00
2023-02-13T15:30:37.586Z,99428.00
2023-02-13T15:33:18.952Z,99437.00
2023-02-13T15:35:55.822Z,99434.00
2023-02-13T15:38:29.275Z,99430.00
2023-02-13T15:41:03.711Z,99429.00
2023-02-13T15:43:38.524Z,99436.00
2023-02-13T15:46:19.789Z,99446.00
2023-02-13T15:48:48.943Z,99434.00
2023-02-13T15:51:24.546Z,99427.00
2023-02-13T15:53:53.863Z,99435.00
2023-02-13T15:56:22.545Z,99423.00
2023-02-13T15:58:52.253Z,99436.00
2023-02-13T16:01:21.033Z,99444.00
2023-02-13T16:04:00.989Z,99426.00
2023-02-13T16:06:31.631Z,99425.00
2023-02-13T16:09:01.640Z,99422.00
2023-02-13T16:11:34.818Z,99436.00
2023-02-13T16:14:18.436Z,99429.00
2023-02-13T16:16:53.752Z,99421.00
2023-02-13T16:19:33.471Z,99414.00
2023-02-13T16:22:15.880Z,99429.00
2023-02-13T16:24:50.985Z,99424.00
2023-02-13T16:27:21.950Z,99432.00
2023-02-13T16:29:58.925Z,99418.00
2023-02-13T16:32:32.260Z,99427.00
2023-02-13T16:35:27.478Z,99442.00
2023-02-13T16:38:01.832Z,99425.00
2023-02-13T16:40:39.713Z,99431.00
2023-02-13T16:43:47.613Z,99452.00
2023-02-13T16:46:30.254Z,99436.00
2023-02-13T16:49:20.536Z,99434.00
2023-02-13T16:51:55.124Z,99448.00
2023-02-13T16:54:48.629Z,99440.00
2023-02-13T16:57:26.479Z,99441.00
2023-02-13T17:00:04.023Z,99443.00
2023-02-13T17:02:34.489Z,99447.00
2023-02-13T17:05:21.655Z,99458.00
2023-02-13T17:07:53.086Z,99447.00
2023-02-13T17:10:27.395Z,99446.00
2023-02-13T17:12:59.567Z,99449.00
2023-02-13T17:15:33.311Z,99452.00
2023-02-13T17:18:01.786Z,99456.00
2023-02-13T17:20:32.832Z,99459.00
2023-02-13T17:23:04.171Z,99464.00
2023-02-13T17:25:35.802Z,99467.00
2023-02-13T17:28:14.543Z,99461.00
2023-02-13T17:30:47.322Z,99464.00
2023-02-13T17:33:21.945Z,99466.00
2023-02-13T17:35:50.424Z,99469.00
2023-02-13T17:38:18.692Z,99461.00
2023-02-13T17:40:49.043Z,99451.00
2023-02-13T17:43:19.777Z,99474.00
2023-02-13T17:45:49.680Z,99453.00
2023-02-13T17:48:18.194Z,99460.00
2023-02-13T17:50:46.553Z,99448.00
2023-02-13T17:53:24.066Z,99455.00
2023-02-13T17:55:53.798Z,99465.00
2023-02-13T17:58:22.042Z,99462.00
2023-02-13T18:00:50.624Z,99463.00
2023-02-13T18:03:18.870Z,99468.00
2023-02-13T18:05:49.502Z,99468.00
2023-02-13T18:08:19.402Z,99473.00
2023-02-13T18:10:47.682Z,99494.00
2023-02-13T18:13:17.556Z,99489.00
2023-02-13T18:15:46.530Z,99497.00
2023-02-13T18:18:17.608Z,99493.00
2023-02-13T18:20:46.733Z,99485.00
2023-02-13T18:23:14.983Z,99491.00
2023-02-13T18:25:43.304Z,99479.00
2023-02-13T18:28:11.618Z,99478.00
2023-02-13T18:30:43.499Z,99483.00
2023-02-13T18:33:12.059Z,99489.00
2023-02-13T18:35:40.359Z,99484.00
2023-02-13T18:38:08.545Z,99488.00
2023-02-13T18:40:37.855Z,99493.00
2023-02-13T18:43:06.198Z,99484.00
2023-02-13T18:45:34.619Z,99483.00
2023-02-13T18:48:04.455Z,99493.00
2023-02-13T18:50:32.678Z,99481.00
2023-02-13T18:53:00.832Z,99494.00
2023-02-13T18:55:29.046Z,99491.00
2023-02-13T18:57:59.252Z,99497.00
2023-02-13T19:00:27.916Z,99486.00
2023-02-13T19:02:57.692Z,99496.00
2023-02-13T19:05:27.635Z,99486.00
2023-02-13T19:07:55.821Z,99493.00
2023-02-13T19:10:24.232Z,99475.00
2023-02-13T19:12:52.591Z,99489.00
2023-02-13T19:15:20.989Z,99483.00
2023-02-13T19:17:49.350Z,99484.00
2023-02-13T19:20:17.944Z,99486.00
2023-02-13T19:22:47.636Z,99496.00
2023-02-13T19:25:16.177Z,99501.00
2023-02-13T19:27:44.430Z,99495.00
2023-02-13T19:30:13.941Z,99493.00
2023-02-13T19:32:42.398Z,99487.00
2023-02-13T19:35:10.675Z,99483.00
2023-02-13T19:37:44.326Z,99493.00
2023-02-13T19:40:17.802Z,99488.00
2023-02-13T19:42:45.948Z,99492.00
2023-02-13T19:45:14.267Z,99489.00
2023-02-13T19:47:42.733Z,99498.00
2023-02-13T19:50:11.730Z,99494.00
2023-02-13T19:52:41.101Z,99505.00
2023-02-13T19:55:10.193Z,99502.00
2023-02-13T19:57:39.878Z,99510.00
2023-02-13T20:00:10.084Z,99499.00
2023-02-13T20:02:41.067Z,99503.00
2023-02-13T20:05:10.179Z,99508.00
2023-02-13T20:07:38.528Z,99505.00
2023-02-13T20:10:09.606Z,99505.00
2023-02-13T20:12:39.790Z,99498.00
2023-02-13T20:15:09.189Z,99507.00
2023-02-13T20:17:39.220Z,99493.00
2023-02-13T20:20:09.384Z,99489.00
2023-02-13T20:22:37.642Z,99495.00
2023-02-13T20:25:07.041Z,99480.00
2023-02-13T20:27:41.498Z,99477.00
2023-02-13T20:30:15.548Z,99473.00
2023-02-13T20:32:44.402Z,99467.00
2023-02-13T20:35:12.693Z,99466.00
2023-02-13T20:37:40.951Z,99468.00
2023-02-13T20:40:10.845Z,99466.00
2023-02-13T20:42:39.266Z,99467.00
2023-02-13T20:45:08.933Z,99467.00
2023-02-13T20:47:38.596Z,99468.00
2023-02-13T20:50:08.256Z,99479.00
2023-02-13T20:52:36.884Z,99485.00
2023-02-13T20:55:06.544Z,99473.00
2023-02-13T20:57:34.899Z,99469.00
2023-02-13T21:00:04.628Z,99470.00
2023-02-13T21:02:33.166Z,99457.00
2023-02-13T21:05:02.969Z,99454.00
2023-02-13T21:07:31.953Z,99472.00
2023-02-13T21:10:00.194Z,99470.00
2023-02-13T21:12:28.424Z,99475.00
2023-02-13T21:14:56.611Z,99467.00
2023-02-13T21:17:24.831Z,99465.00
2023-02-13T21:19:53.032Z,99464.00
2023-02-13T21:22:22.890Z,99452.00
2023-02-13T21:24:51.985Z,99468.00
2023-02-13T21:27:20.428Z,99465.00
2023-02-13T21:29:48.772Z,99446.00
2023-02-13T21:32:17.458Z,99451.00
2023-02-13T21:34:45.719Z,99445.00
2023-02-13T21:37:14.254Z,99454.00
2023-02-13T21:39:43.823Z,99447.00
2023-02-13T21:42:12.320Z,99448.00
2023-02-13T21:44:40.621Z,99441.00
2023-02-13T21:47:09.019Z,99446.00
2023-02-13T21:49:37.434Z,99437.00
2023-02-13T21:52:05.854Z,99447.00
2023-02-13T21:54:34.893Z,99447.00
2023-02-13T21:57:04.726Z,99433.00
2023-02-13T21:59:33.025Z,99439.00
2023-02-13T22:02:02.657Z,99437.00
2023-02-13T22:04:31.148Z,99431.00
2023-02-13T22:06:59.524Z,99434.00
2023-02-13T22:09:27.900Z,99430.00
2023-02-13T22:11:56.216Z,99438.00
2023-02-13T22:14:26.197Z,99435.00
2023-02-13T22:16:54.390Z,99433.00
2023-02-13T22:19:22.704Z,99432.00
2023-02-13T22:21:51.462Z,99437.00
2023-02-13T22:24:19.657Z,99445.00
2023-02-13T22:26:48.059Z,99446.00
2023-02-13T22:29:18.463Z,99455.00
2023-02-13T22:31:48.254Z,99449.00
2023-02-13T22:34:16.662Z,99443.00
2023-02-13T22:36:45.012Z,99442.00
2023-02-13T22:39:13.827Z,99467.00
2023-02-13T22:41:45.491Z,99461.00
2023-02-13T22:44:14.000Z,99465.00
2023-02-13T22:46:42.434Z,99460.00
2023-02-13T22:49:12.153Z,99466.00
2023-02-13T22:51:40.564Z,99456.00
2023-02-13T22:54:08.755Z,99457.00
2023-02-13T22:56:36.969Z,99460.00
2023-02-13T22:59:05.361Z,99449.00
2023-02-13T23:01:33.861Z,99438.00
2023-02-13T23:04:02.217Z,99433.00
2023-02-13T23:06:32.116Z,99447.00
2023-02-13T23:09:00.418Z,99430.00
2023-02-13T23:11:46.905Z,99443.00
2023-02-13T23:14:16.853Z,99442.00
2023-02-13T23:17:03.428Z,99435.00
2023-02-13T23:19:32.074Z,99441.00
2023-02-13T23:22:02.208Z,99442.00
2023-02-13T23:24:32.505Z,99431.00
2023-02-13T23:27:01.450Z,99439.00
2023-02-13T23:29:29.750Z,99429.00
2023-02-13T23:31:58.290Z,99438.00
2023-02-13T23:34:26.839Z,99422.00
2023-02-13T23:36:55.141Z,99418.00
2023-02-13T23:39:25.278Z,99432.00
2023-02-13T23:41:53.385Z,99426.00
2023-02-13T23:44:21.755Z,99421.00
2023-02-13T23:46:50.255Z,99432.00
2023-02-13T23:49:19.304Z,99439.00
2023-02-13T23:51:48.067Z,99445.00
2023-02-13T23:54:17.632Z,99435.00
2023-02-13T23:56:49.830Z,99428.00
2023-02-13T23:59:19.799Z,99425.00
